Time;durP1;ratioP1;P1;durP2;ratioP2;P2;SDS_P1;SDS_P2;PMS_P1;PMS_P2;Temp;Humidity;BMP_temperature;BMP_pressure;BME280_temperature;BME280_humidity;BME280_pressure;Samples;Min_cycle;Max_cycle;Signal;HPM_P1;HPM_P2
2021/08/01 00:00:16;;;;;;;4.30;1.05;;;23.70;47.20;;;;;;5048512;28;20099;-49
2021/08/01 00:02:43;;;;;;;1.08;0.40;;;23.70;47.30;;;;;;5047451;28;20072;-45
2021/08/01 00:05:13;;;;;;;4.47;0.45;;;23.70;47.30;;;;;;5039471;28;20033;-44
2021/08/01 00:07:40;;;;;;;2.88;0.30;;;23.70;47.40;;;;;;5047362;28;20045;-46
2021/08/01 00:10:09;;;;;;;3.03;1.35;;;23.70;47.50;;;;;;5047257;28;20609;-47
2021/08/01 00:12:37;;;;;;;2.45;1.48;;;23.70;47.60;;;;;;5033821;28;20064;-50
2021/08/01 00:15:05;;;;;;;2.00;1.73;;;23.60;47.60;;;;;;5038630;28;20084;-46
2021/08/01 00:17:32;;;;;;;2.70;0.45;;;23.60;47.60;;;;;;5033098;28;20077;-48
2021/08/01 00:19:59;;;;;;;2.42;0.32;;;23.60;47.70;;;;;;5044264;28;20387;-47
2021/08/01 00:22:27;;;;;;;1.63;0.20;;;23.60;47.70;;;;;;5044263;28;20123;-45
2021/08/01 00:24:54;;;;;;;1.08;0.20;;;23.60;47.80;;;;;;5031063;28;20052;-43
2021/08/01 00:27:21;;;;;;;0.75;0.38;;;23.60;47.80;;;;;;5044111;28;20465;-45
2021/08/01 00:29:48;;;;;;;4.40;0.93;;;23.50;47.80;;;;;;5034514;28;20092;-49
2021/08/01 00:32:15;;;;;;;1.63;0.17;;;23.50;47.90;;;;;;5039679;28;20426;-43
2021/08/01 00:34:42;;;;;;;2.30;0.13;;;23.50;48.00;;;;;;5031409;28;20072;-44
2021/08/01 00:37:10;;;;;;;4.68;0.30;;;23.40;48.00;;;;;;5046902;28;20863;-51
2021/08/01 00:39:38;;;;;;;0.88;0.10;;;23.50;48.10;;;;;;5030992;28;20048;-48
2021/08/01 00:42:07;;;;;;;3.47;0.20;;;23.40;48.10;;;;;;5034637;28;20045;-46
2021/08/01 00:44:34;;;;;;;2.97;0.30;;;23.40;48.10;;;;;;5043912;28;20045;-43
2021/08/01 00:47:01;;;;;;;2.78;0.35;;;23.40;48.10;;;;;;5042170;28;20152;-46
2021/08/01 00:49:29;;;;;;;2.22;0.20;;;23.40;48.20;;;;;;5032415;28;20191;-47
2021/08/01 00:51:57;;;;;;;0.32;0.20;;;23.40;48.30;;;;;;5045100;28;20048;-45
2021/08/01 00:54:26;;;;;;;0.40;0.38;;;23.30;48.20;;;;;;5031450;28;20068;-47
2021/08/01 00:56:56;;;;;;;0.95;0.47;;;23.30;48.30;;;;;;5045043;28;20045;-49
2021/08/01 00:59:23;;;;;;;1.20;0.20;;;23.30;48.40;;;;;;5043431;28;20068;-47
2021/08/01 01:01:57;;;;;;;0.82;0.20;;;23.20;48.40;;;;;;5044820;28;20040;-44
2021/08/01 01:04:31;;;;;;;0.63;0.30;;;23.20;48.50;;;;;;5032798;28;20041;-47
2021/08/01 01:07:02;;;;;;;3.13;0.43;;;23.20;48.50;;;;;;5042742;28;20049;-44
2021/08/01 01:09:36;;;;;;;1.58;0.40;;;23.20;48.60;;;;;;5032073;28;20080;-46
2021/08/01 01:12:30;;;;;;;1.45;0.20;;;23.20;48.60;;;;;;5040773;28;20049;-44
2021/08/01 01:15:01;;;;;;;3.33;0.22;;;23.20;48.80;;;;;;5030767;28;20053;-49
2021/08/01 01:17:34;;;;;;;0.52;0.10;;;23.20;48.90;;;;;;5040652;28;20048;-45
2021/08/01 01:20:15;;;;;;;1.05;0.25;;;23.10;49.20;;;;;;5043165;28;20073;-47
2021/08/01 01:22:56;;;;;;;0.38;0.17;;;23.10;48.90;;;;;;5034388;28;20053;-45
2021/08/01 01:25:50;;;;;;;1.92;0.43;;;23.10;49.00;;;;;;5038841;28;20045;-45
2021/08/01 01:28:32;;;;;;;3.40;0.20;;;23.10;49.10;;;;;;5027052;28;20512;-45
2021/08/01 01:31:10;;;;;;;0.20;0.15;;;23.10;49.20;;;;;;5033145;28;20041;-44
2021/08/01 01:33:44;;;;;;;4.30;0.55;;;23.00;49.20;;;;;;5043208;28;20057;-44
2021/08/01 01:36:18;;;;;;;0.52;0.10;;;23.00;49.30;;;;;;5042395;28;20036;-44
2021/08/01 01:38:48;;;;;;;2.10;0.70;;;23.00;49.30;;;;;;5049570;28;20422;-43
2021/08/01 01:41:19;;;;;;;1.55;0.20;;;23.00;49.30;;;;;;5038582;28;20549;-48
2021/08/01 01:44:06;;;;;;;1.50;0.10;;;22.90;49.40;;;;;;5028713;28;20041;-44
2021/08/01 01:46:35;;;;;;;2.45;0.22;;;22.90;49.50;;;;;;5044643;28;20045;-46
2021/08/01 01:49:04;;;;;;;0.80;0.20;;;22.90;49.50;;;;;;5045633;28;20049;-44
2021/08/01 01:51:36;;;;;;;3.40;0.47;;;22.90;49.50;;;;;;5040616;28;20056;-45
2021/08/01 01:54:05;;;;;;;3.22;0.30;;;22.90;49.60;;;;;;5046134;28;20076;-46
2021/08/01 01:56:35;;;;;;;2.17;0.45;;;22.90;49.60;;;;;;5038683;28;20608;-46
2021/08/01 01:59:05;;;;;;;2.80;0.22;;;22.90;49.70;;;;;;5036191;28;20120;-44
2021/08/01 02:01:35;;;;;;;4.18;0.20;;;22.90;49.70;;;;;;5046000;28;20039;-47
2021/08/01 02:04:04;;;;;;;1.40;0.32;;;22.90;49.70;;;;;;5045586;28;20045;-45
2021/08/01 02:07:05;;;;;;;2.97;0.75;;;22.90;49.80;;;;;;5029406;28;20098;-45
2021/08/01 02:09:48;;;;;;;2.03;0.20;;;22.90;49.80;;;;;;5042398;28;20048;-43
2021/08/01 02:12:27;;;;;;;3.78;0.47;;;22.80;49.80;;;;;;5051684;28;20156;-45
2021/08/01 02:15:04;;;;;;;3.20;0.20;;;22.80;49.90;;;;;;5031796;28;20061;-45
2021/08/01 02:17:40;;;;;;;3.72;0.47;;;22.80;50.50;;;;;;5041488;28;20048;-49
2021/08/01 02:20:10;;;;;;;1.95;0.35;;;22.80;50.00;;;;;;5045051;28;20033;-48
2021/08/01 02:22:49;;;;;;;5.00;0.68;;;22.80;50.10;;;;;;5039837;28;20156;-47
2021/08/01 02:25:17;;;;;;;0.93;0.13;;;22.80;50.10;;;;;;5045517;28;20064;-47
2021/08/01 02:27:47;;;;;;;2.55;0.40;;;22.70;50.10;;;;;;5045945;28;20156;-45
2021/08/01 02:30:15;;;;;;;1.83;0.55;;;22.80;50.10;;;;;;5045166;28;20139;-46
2021/08/01 02:32:44;;;;;;;2.00;0.20;;;22.70;50.10;;;;;;5040837;28;20411;-46
2021/08/01 02:35:13;;;;;;;7.00;0.32;;;22.70;50.20;;;;;;5031103;28;20514;-47
2021/08/01 02:37:41;;;;;;;2.13;0.20;;;22.70;50.30;;;;;;5044235;28;20118;-46
2021/08/01 02:40:11;;;;;;;0.45;0.20;;;22.80;50.40;;;;;;5028013;28;20123;-49
2021/08/01 02:42:40;;;;;;;0.20;0.10;;;22.80;50.40;;;;;;5044619;28;20087;-52
2021/08/01 02:45:09;;;;;;;3.30;0.20;;;22.70;50.40;;;;;;5034261;28;20578;-47
2021/08/01 02:47:36;;;;;;;3.60;0.30;;;22.70;50.50;;;;;;5047333;28;20044;-46
2021/08/01 02:50:08;;;;;;;3.08;0.45;;;22.70;50.50;;;;;;5045393;28;20050;-48
2021/08/01 02:52:41;;;;;;;2.58;0.20;;;22.70;50.60;;;;;;5041089;28;20403;-48
2021/08/01 02:55:13;;;;;;;2.50;0.30;;;22.70;50.60;;;;;;5038717;28;20041;-45
2021/08/01 02:57:46;;;;;;;0.25;0.15;;;22.70;50.70;;;;;;5039279;28;20034;-46
2021/08/01 03:00:15;;;;;;;0.90;0.52;;;22.70;50.70;;;;;;5037044;28;20037;-47
2021/08/01 03:02:45;;;;;;;1.75;0.20;;;22.60;50.60;;;;;;5052293;28;20041;-46
2021/08/01 03:05:12;;;;;;;3.50;0.30;;;22.70;50.70;;;;;;5057337;28;20049;-46
2021/08/01 03:07:41;;;;;;;2.33;0.40;;;22.60;50.60;;;;;;5036893;28;20033;-50
2021/08/01 03:10:11;;;;;;;3.38;0.30;;;22.60;50.60;;;;;;5039451;28;20036;-46
2021/08/01 03:12:41;;;;;;;0.77;0.22;;;22.60;51.20;;;;;;5038716;28;20036;-49
2021/08/01 03:15:09;;;;;;;1.13;0.17;;;22.60;50.60;;;;;;5043053;28;20044;-47
2021/08/01 03:17:36;;;;;;;2.00;0.30;;;22.60;50.70;;;;;;5039287;28;20575;-47
2021/08/01 03:20:05;;;;;;;3.70;0.38;;;22.60;50.70;;;;;;5039373;28;20055;-44
2021/08/01 03:22:37;;;;;;;1.50;0.55;;;22.60;50.70;;;;;;5057228;28;20036;-46
2021/08/01 03:25:05;;;;;;;1.05;0.22;;;22.60;50.80;;;;;;5038712;28;20044;-45
2021/08/01 03:27:34;;;;;;;4.65;0.30;;;22.50;50.70;;;;;;5039241;28;20455;-45
2021/08/01 03:30:03;;;;;;;2.17;0.47;;;22.50;50.70;;;;;;5038717;28;20418;-46
2021/08/01 03:32:31;;;;;;;1.92;0.30;;;22.60;50.80;;;;;;5039699;28;20119;-48
2021/08/01 03:34:59;;;;;;;2.35;0.28;;;22.60;50.80;;;;;;5035413;28;20041;-46
2021/08/01 03:37:29;;;;;;;3.00;0.10;;;22.50;50.70;;;;;;5056996;28;20128;-43
2021/08/01 03:40:15;;;;;;;1.27;0.20;;;22.50;50.80;;;;;;5041664;28;20055;-45
2021/08/01 03:42:44;;;;;;;3.33;0.63;;;22.50;50.80;;;;;;5039908;28;20033;-48
2021/08/01 03:45:13;;;;;;;3.05;0.30;;;22.50;50.90;;;;;;5044109;28;20123;-45
2021/08/01 03:47:40;;;;;;;4.03;0.50;;;22.50;50.90;;;;;;5040312;28;20051;-47
2021/08/01 03:50:08;;;;;;;2.63;0.20;;;22.50;50.90;;;;;;5043725;28;20091;-43
2021/08/01 03:52:35;;;;;;;1.92;0.10;;;22.50;50.90;;;;;;5047912;28;20391;-41
2021/08/01 03:55:02;;;;;;;3.40;0.28;;;22.40;50.90;;;;;;5040903;28;20124;-40
2021/08/01 03:57:29;;;;;;;0.60;0.20;;;22.40;50.90;;;;;;5048874;28;20055;-43
2021/08/01 03:59:58;;;;;;;2.72;0.28;;;22.40;51.00;;;;;;5039860;28;20037;-45
2021/08/01 04:02:25;;;;;;;2.20;0.30;;;22.40;51.00;;;;;;5046940;28;20118;-38
2021/08/01 04:04:53;;;;;;;1.05;0.10;;;22.40;51.00;;;;;;5045669;28;20049;-39
2021/08/01 04:07:20;;;;;;;2.83;0.75;;;22.40;51.10;;;;;;5045997;28;20045;-39
2021/08/01 04:09:47;;;;;;;2.75;0.32;;;22.40;51.10;;;;;;5036510;28;20052;-40
2021/08/01 04:12:14;;;;;;;1.88;0.10;;;22.40;51.10;;;;;;5036422;28;20594;-42
2021/08/01 04:14:41;;;;;;;3.05;0.20;;;22.30;51.00;;;;;;5045679;28;20040;-40
2021/08/01 04:17:10;;;;;;;6.97;1.05;;;22.40;51.20;;;;;;5047017;28;20072;-40
2021/08/01 04:19:37;;;;;;;5.88;0.40;;;22.30;51.60;;;;;;5042787;28;20406;-39
2021/08/01 04:22:04;;;;;;;2.60;0.43;;;22.40;52.70;;;;;;5031139;28;20125;-39
2021/08/01 04:24:31;;;;;;;9.25;1.55;;;22.50;53.90;;;;;;5032931;28;20037;-39
2021/08/01 04:26:58;;;;;;;8.70;0.73;;;22.50;54.60;;;;;;5040915;28;20044;-40
2021/08/01 04:29:25;;;;;;;7.78;1.17;;;22.60;55.00;;;;;;5047103;28;20174;-40
2021/08/01 04:31:53;;;;;;;5.10;0.10;;;22.70;55.10;;;;;;5047202;28;20044;-39
2021/08/01 04:34:22;;;;;;;4.00;0.20;;;22.70;55.10;;;;;;5047600;28;20119;-42
2021/08/01 04:36:49;;;;;;;3.35;0.60;;;22.90;55.30;;;;;;5033409;28;20939;-40
2021/08/01 04:39:16;;;;;;;3.92;0.40;;;22.90;55.20;;;;;;5048089;28;20116;-41
2021/08/01 04:41:43;;;;;;;2.00;0.20;;;23.00;55.00;;;;;;5047079;28;20132;-40
2021/08/01 04:44:10;;;;;;;1.30;0.30;;;23.00;54.90;;;;;;5036989;28;20120;-40
2021/08/01 04:46:39;;;;;;;4.95;0.68;;;23.10;54.80;;;;;;5034817;28;20514;-40
2021/08/01 04:49:06;;;;;;;1.15;0.20;;;23.20;54.90;;;;;;5030697;28;20045;-40
2021/08/01 04:51:35;;;;;;;3.20;0.25;;;23.20;54.70;;;;;;5032763;28;20581;-42
2021/08/01 04:54:02;;;;;;;1.40;0.50;;;23.30;54.70;;;;;;5045876;28;20040;-46
2021/08/01 04:56:29;;;;;;;0.70;0.38;;;23.30;54.60;;;;;;5045046;28;20041;-40
2021/08/01 04:58:56;;;;;;;4.28;1.23;;;23.30;54.50;;;;;;5044716;28;20041;-40
2021/08/01 05:01:23;;;;;;;0.17;0.10;;;23.40;54.40;;;;;;5032568;28;20048;-40
2021/08/01 05:03:50;;;;;;;2.60;0.30;;;23.40;54.20;;;;;;5030779;28;20479;-40
2021/08/01 05:06:17;;;;;;;0.57;0.10;;;23.50;54.10;;;;;;5047508;28;20125;-41
2021/08/01 05:08:45;;;;;;;0.55;0.10;;;23.50;53.90;;;;;;5045156;28;20053;-40
2021/08/01 05:11:12;;;;;;;1.13;0.20;;;23.50;53.70;;;;;;5046264;28;20127;-40
2021/08/01 05:13:39;;;;;;;2.47;0.32;;;23.60;53.80;;;;;;5040544;28;20045;-40
2021/08/01 05:16:06;;;;;;;2.50;0.10;;;23.60;53.70;;;;;;5046065;28;20586;-40
2021/08/01 05:18:33;;;;;;;0.52;0.10;;;23.60;53.50;;;;;;5047703;28;20119;-40
2021/08/01 05:21:00;;;;;;;1.45;0.40;;;23.70;53.50;;;;;;5046176;28;20102;-42
2021/08/01 05:23:27;;;;;;;1.67;0.13;;;23.70;53.40;;;;;;5045863;28;20136;-40
2021/08/01 05:25:57;;;;;;;1.20;0.40;;;23.70;53.30;;;;;;5038498;28;20038;-43
2021/08/01 05:28:24;;;;;;;0.70;0.30;;;23.80;53.80;;;;;;5032851;28;20060;-40
2021/08/01 05:30:51;;;;;;;1.13;0.10;;;23.80;53.10;;;;;;5030450;28;20137;-40
2021/08/01 05:33:18;;;;;;;0.77;0.15;;;23.80;52.90;;;;;;5047051;28;20085;-42
2021/08/01 05:35:46;;;;;;;0.70;0.10;;;23.90;52.90;;;;;;5035561;28;20089;-41
2021/08/01 05:38:14;;;;;;;1.23;1.17;;;23.90;52.80;;;;;;5034389;28;20069;-40
2021/08/01 05:40:44;;;;;;;0.20;0.10;;;23.90;52.70;;;;;;5034761;28;20041;-43
2021/08/01 05:43:13;;;;;;;0.30;0.10;;;24.00;52.60;;;;;;5030546;28;20025;-40
2021/08/01 05:45:40;;;;;;;0.30;0.10;;;24.00;52.50;;;;;;5046929;28;20049;-40
2021/08/01 05:48:07;;;;;;;5.75;0.20;;;24.00;52.50;;;;;;5046163;28;20122;-41
2021/08/01 05:50:34;;;;;;;0.20;0.10;;;24.00;52.30;;;;;;5045597;28;20127;-41
2021/08/01 05:53:01;;;;;;;0.35;0.20;;;24.00;52.20;;;;;;5045663;28;20132;-40
2021/08/01 05:55:28;;;;;;;0.47;0.25;;;24.10;52.20;;;;;;5045871;28;20569;-41
2021/08/01 05:57:55;;;;;;;0.40;0.10;;;24.10;52.10;;;;;;5027891;28;20095;-40
2021/08/01 06:00:23;;;;;;;0.30;0.10;;;24.10;52.00;;;;;;5046907;28;20080;-46
2021/08/01 06:02:50;;;;;;;0.75;0.20;;;24.10;52.00;;;;;;5046037;28;20535;-41
2021/08/01 06:05:17;;;;;;;0.10;0.10;;;24.10;51.90;;;;;;5045329;28;20034;-40
2021/08/01 06:07:44;;;;;;;0.40;0.10;;;24.10;51.80;;;;;;5045276;28;20123;-40
2021/08/01 06:10:12;;;;;;;0.52;0.10;;;24.10;51.70;;;;;;5045576;28;20090;-40
2021/08/01 06:12:39;;;;;;;2.97;0.30;;;24.20;51.70;;;;;;5036208;28;20147;-40
2021/08/01 06:15:07;;;;;;;1.00;0.10;;;24.20;51.60;;;;;;5032853;28;20136;-40
2021/08/01 06:17:36;;;;;;;0.85;0.10;;;24.20;51.60;;;;;;5033983;28;20088;-40
2021/08/01 06:20:04;;;;;;;0.57;0.10;;;24.20;52.10;;;;;;5035568;28;20124;-41
2021/08/01 06:22:31;;;;;;;1.17;0.20;;;24.20;51.50;;;;;;5036230;28;20227;-42
2021/08/01 06:24:58;;;;;;;0.20;0.20;;;24.20;51.40;;;;;;5048876;28;20131;-40
2021/08/01 06:27:25;;;;;;;0.32;0.20;;;24.30;51.30;;;;;;5047093;28;20052;-40
2021/08/01 06:29:52;;;;;;;0.30;0.10;;;24.30;51.30;;;;;;5048839;28;20143;-42
2021/08/01 06:32:19;;;;;;;0.30;0.10;;;24.30;51.20;;;;;;5048974;28;20045;-42
2021/08/01 06:34:48;;;;;;;0.10;0.03;;;24.30;51.10;;;;;;5048757;28;20138;-40
2021/08/01 06:37:15;;;;;;;0.32;0.10;;;24.40;51.00;;;;;;5049349;28;20840;-40
2021/08/01 06:39:44;;;;;;;2.72;0.10;;;24.40;51.00;;;;;;5032923;28;20072;-40
2021/08/01 06:42:11;;;;;;;1.05;0.10;;;24.40;50.90;;;;;;5037482;28;20045;-40
2021/08/01 06:44:38;;;;;;;0.85;0.10;;;24.40;50.80;;;;;;5043524;28;20051;-40
2021/08/01 06:47:05;;;;;;;0.40;0.00;;;24.40;50.80;;;;;;5048617;28;20146;-40
2021/08/01 06:49:33;;;;;;;1.10;0.10;;;24.40;50.70;;;;;;5048980;28;20609;-40
2021/08/01 06:52:01;;;;;;;0.55;0.10;;;24.40;50.70;;;;;;5048966;28;20041;-41
2021/08/01 06:54:28;;;;;;;1.65;0.15;;;24.40;50.70;;;;;;5035401;28;20137;-40
2021/08/01 06:56:55;;;;;;;0.75;0.47;;;24.40;50.70;;;;;;5047477;28;20103;-40
2021/08/01 06:59:22;;;;;;;0.20;0.08;;;24.50;50.60;;;;;;5043334;28;20486;-40
2021/08/01 07:01:49;;;;;;;0.43;0.10;;;24.50;51.10;;;;;;5038195;28;20064;-41
2021/08/01 07:04:16;;;;;;;1.20;0.10;;;24.50;50.50;;;;;;5048701;28;20080;-40
2021/08/01 07:06:44;;;;;;;0.85;0.10;;;24.50;50.50;;;;;;5048865;28;20189;-39
2021/08/01 07:09:12;;;;;;;0.10;0.10;;;24.50;50.40;;;;;;5048689;28;20076;-40
2021/08/01 07:11:39;;;;;;;0.57;0.00;;;24.60;50.40;;;;;;5047865;28;20155;-40
2021/08/01 07:14:06;;;;;;;0.17;0.10;;;24.60;50.40;;;;;;5039328;28;20514;-41
2021/08/01 07:16:33;;;;;;;0.30;0.10;;;24.60;50.30;;;;;;5035139;28;20075;-42
2021/08/01 07:19:02;;;;;;;1.27;0.10;;;24.60;50.30;;;;;;5048200;28;20136;-43
2021/08/01 07:21:29;;;;;;;1.08;0.10;;;24.60;50.40;;;;;;5035097;28;20045;-41
2021/08/01 07:23:56;;;;;;;0.63;0.10;;;24.60;50.30;;;;;;5047197;28;20148;-42
2021/08/01 07:26:24;;;;;;;0.90;0.10;;;24.60;50.20;;;;;;5047883;28;20048;-40
2021/08/01 07:28:51;;;;;;;0.88;0.38;;;24.60;50.20;;;;;;5046847;28;20045;-43
2021/08/01 07:31:18;;;;;;;1.85;0.10;;;24.60;50.10;;;;;;5032777;28;20053;-40
2021/08/01 07:33:47;;;;;;;0.55;0.55;;;24.60;50.10;;;;;;5037959;28;20045;-40
2021/08/01 07:36:14;;;;;;;0.10;0.05;;;24.60;50.00;;;;;;5048387;28;20033;-41
2021/08/01 07:38:41;;;;;;;0.55;0.10;;;24.70;50.10;;;;;;5039839;28;20480;-42
2021/08/01 07:41:08;;;;;;;2.13;0.10;;;24.70;50.00;;;;;;5036693;28;20168;-40
2021/08/01 07:43:36;;;;;;;0.50;0.10;;;24.70;50.00;;;;;;5034622;28;20124;-41
2021/08/01 07:46:03;;;;;;;1.48;0.10;;;24.70;50.10;;;;;;5047907;28;20107;-42
2021/08/01 07:48:30;;;;;;;2.83;0.10;;;24.70;50.00;;;;;;5033995;28;20041;-41
2021/08/01 07:50:57;;;;;;;0.52;0.10;;;24.70;49.90;;;;;;5031798;28;20493;-40
2021/08/01 07:53:24;;;;;;;0.00;0.00;;;24.80;49.90;;;;;;5036218;28;20049;-40
2021/08/01 07:55:52;;;;;;;0.55;0.10;;;24.80;49.90;;;;;;5037478;28;20068;-40
2021/08/01 07:58:19;;;;;;;0.10;0.00;;;24.80;49.90;;;;;;5047522;28;20553;-42
2021/08/01 08:00:47;;;;;;;1.45;0.10;;;24.80;49.80;;;;;;5031641;28;20045;-40
2021/08/01 08:03:15;;;;;;;1.25;0.10;;;24.80;49.70;;;;;;5047499;28;20049;-41
2021/08/01 08:05:42;;;;;;;0.40;0.03;;;24.80;49.60;;;;;;5047394;28;20743;-42
2021/08/01 08:08:09;;;;;;;0.73;0.10;;;24.80;49.40;;;;;;5047169;28;20049;-44
2021/08/01 08:10:36;;;;;;;0.82;0.00;;;24.80;49.40;;;;;;5047998;28;20155;-40
2021/08/01 08:13:03;;;;;;;0.15;0.10;;;24.90;49.40;;;;;;5048063;28;20049;-41
2021/08/01 08:15:30;;;;;;;0.20;0.03;;;24.90;49.40;;;;;;5033880;28;20049;-40
2021/08/01 08:17:58;;;;;;;0.00;0.00;;;24.90;49.30;;;;;;5046114;28;20131;-41
2021/08/01 08:20:26;;;;;;;1.17;0.10;;;24.90;49.20;;;;;;5042452;28;20527;-39
2021/08/01 08:22:53;;;;;;;0.00;0.00;;;24.90;49.30;;;;;;5037116;28;20036;-43
2021/08/01 08:25:20;;;;;;;2.95;0.10;;;24.90;49.30;;;;;;5046398;28;20482;-40
2021/08/01 08:27:47;;;;;;;1.55;0.00;;;24.90;49.30;;;;;;5030911;28;20522;-40
2021/08/01 08:30:14;;;;;;;0.55;0.10;;;24.90;49.20;;;;;;5035295;28;20863;-42
2021/08/01 08:32:41;;;;;;;0.93;0.10;;;25.00;49.20;;;;;;5032134;28;20675;-42
2021/08/01 08:35:11;;;;;;;1.20;0.00;;;25.00;49.20;;;;;;5035667;28;20068;-41
2021/08/01 08:37:47;;;;;;;0.30;0.10;;;25.00;49.10;;;;;;5034684;28;20065;-41
2021/08/01 08:40:15;;;;;;;0.38;0.10;;;25.00;48.90;;;;;;5031626;28;20045;-40
2021/08/01 08:42:45;;;;;;;0.22;0.00;;;25.00;49.00;;;;;;5045959;28;20128;-42
2021/08/01 08:45:14;;;;;;;0.35;0.00;;;25.00;48.90;;;;;;5046587;28;20055;-42
2021/08/01 08:47:44;;;;;;;1.42;0.08;;;25.00;48.80;;;;;;5038869;28;20048;-41
2021/08/01 08:50:15;;;;;;;0.93;0.10;;;25.00;48.90;;;;;;5038795;28;20040;-41
2021/08/01 08:52:44;;;;;;;0.30;0.10;;;25.10;48.80;;;;;;5045022;28;20063;-44
2021/08/01 08:55:13;;;;;;;0.30;0.30;;;25.10;48.80;;;;;;5031023;28;20490;-41
2021/08/01 08:57:44;;;;;;;0.28;0.10;;;25.10;48.80;;;;;;5031584;28;20053;-42
2021/08/01 09:00:14;;;;;;;0.55;0.13;;;25.10;48.80;;;;;;5034904;28;20072;-39
2021/08/01 09:02:41;;;;;;;0.65;0.13;;;25.10;48.70;;;;;;5042982;28;20052;-42
2021/08/01 09:05:09;;;;;;;1.10;0.20;;;25.10;48.70;;;;;;5042740;28;20029;-41
2021/08/01 09:07:40;;;;;;;1.10;0.20;;;25.10;48.60;;;;;;5034234;28;20037;-41
2021/08/01 09:10:08;;;;;;;0.30;0.10;;;25.20;48.70;;;;;;5046201;28;20041;-42
2021/08/01 09:12:43;;;;;;;0.40;0.40;;;25.10;48.60;;;;;;5043057;28;20069;-41
2021/08/01 09:15:13;;;;;;;0.95;0.32;;;25.20;48.60;;;;;;5034986;28;20049;-42
2021/08/01 09:17:41;;;;;;;0.13;0.10;;;25.20;48.60;;;;;;5035015;28;20069;-41
2021/08/01 09:20:20;;;;;;;0.30;0.30;;;25.20;48.50;;;;;;5034985;28;20033;-41
2021/08/01 09:23:09;;;;;;;0.95;0.10;;;25.20;48.50;;;;;;5035956;28;20076;-41
2021/08/01 09:25:38;;;;;;;0.82;0.57;;;25.20;48.40;;;;;;5046016;28;20120;-43
2021/08/01 09:28:14;;;;;;;1.08;0.20;;;25.20;48.40;;;;;;5045886;28;20148;-42
2021/08/01 09:30:50;;;;;;;0.20;0.10;;;25.20;48.30;;;;;;5042993;28;20406;-40
2021/08/01 09:33:30;;;;;;;1.77;0.17;;;25.20;48.30;;;;;;5046390;28;20527;-40
2021/08/01 09:36:05;;;;;;;0.77;0.10;;;25.20;48.30;;;;;;5035774;28;20132;-40
2021/08/01 09:38:48;;;;;;;0.30;0.23;;;25.30;48.30;;;;;;5034652;28;20053;-40
2021/08/01 09:41:17;;;;;;;0.65;0.10;;;25.30;48.30;;;;;;5034640;28;20041;-41
2021/08/01 09:43:46;;;;;;;0.20;0.10;;;25.30;48.30;;;;;;5034594;28;20048;-40
2021/08/01 09:46:13;;;;;;;1.48;0.10;;;25.30;48.30;;;;;;5030951;28;20072;-44
2021/08/01 09:48:41;;;;;;;1.27;0.30;;;25.30;48.20;;;;;;5046876;28;20041;-44
2021/08/01 09:51:10;;;;;;;0.98;0.20;;;25.30;48.10;;;;;;5034694;28;20065;-42
2021/08/01 09:53:39;;;;;;;0.10;0.10;;;25.30;48.10;;;;;;5034760;28;20049;-46
2021/08/01 09:56:28;;;;;;;0.20;0.10;;;25.30;48.00;;;;;;5038467;28;20132;-45
2021/08/01 09:58:55;;;;;;;0.80;0.10;;;25.40;47.90;;;;;;5036179;28;20041;-43
2021/08/01 10:01:22;;;;;;;0.10;0.10;;;25.30;48.00;;;;;;5050380;28;20588;-42
2021/08/01 10:03:51;;;;;;;0.10;0.10;;;25.30;47.90;;;;;;5050277;28;20045;-41
2021/08/01 10:06:19;;;;;;;1.75;0.10;;;25.40;48.00;;;;;;5038103;28;20083;-43
2021/08/01 10:08:48;;;;;;;0.10;0.10;;;25.40;47.90;;;;;;5038735;28;20095;-41
2021/08/01 10:11:16;;;;;;;0.70;0.10;;;25.40;47.90;;;;;;5043902;28;20683;-46
2021/08/01 10:13:46;;;;;;;0.40;0.10;;;25.40;47.90;;;;;;5043422;28;20095;-42
2021/08/01 10:16:14;;;;;;;1.00;0.98;;;25.40;47.80;;;;;;5050231;28;20037;-42
2021/08/01 10:18:42;;;;;;;0.50;0.40;;;25.40;47.80;;;;;;5050489;28;20124;-46
2021/08/01 10:21:12;;;;;;;0.10;0.10;;;25.40;47.80;;;;;;5038314;28;20127;-41
2021/08/01 10:23:44;;;;;;;0.35;0.10;;;25.40;47.70;;;;;;5038702;28;20137;-39
2021/08/01 10:26:14;;;;;;;0.65;0.10;;;25.50;47.70;;;;;;5038404;28;20072;-43
2021/08/01 10:28:43;;;;;;;0.22;0.10;;;25.40;47.60;;;;;;5038054;28;20140;-41
2021/08/01 10:31:15;;;;;;;1.00;0.10;;;25.50;47.60;;;;;;5032411;28;20148;-42
2021/08/01 10:33:52;;;;;;;0.20;0.10;;;25.50;47.60;;;;;;5031193;28;20073;-42
2021/08/01 10:36:27;;;;;;;0.17;0.10;;;25.50;47.60;;;;;;5048545;28;20051;-43
2021/08/01 10:38:59;;;;;;;0.30;0.15;;;25.60;47.60;;;;;;5049152;28;20154;-43
2021/08/01 10:41:31;;;;;;;1.17;0.10;;;25.50;47.50;;;;;;5043376;28;20118;-45
2021/08/01 10:44:03;;;;;;;0.63;0.10;;;25.50;47.50;;;;;;5049192;28;20461;-42
2021/08/01 10:46:33;;;;;;;1.75;0.20;;;25.50;47.40;;;;;;5048979;28;20513;-41
2021/08/01 10:49:02;;;;;;;2.92;0.30;;;25.60;47.60;;;;;;5049146;28;20045;-45
2021/08/01 10:51:30;;;;;;;0.30;0.10;;;25.60;47.50;;;;;;5050345;28;20056;-41
2021/08/01 10:54:33;;;;;;;0.75;0.10;;;25.60;47.40;;;;;;5049135;28;20055;-43
2021/08/01 10:57:18;;;;;;;0.10;0.10;;;25.60;47.40;;;;;;5048788;28;20469;-48
2021/08/01 11:00:09;;;;;;;0.05;0.03;;;25.60;47.40;;;;;;5039936;28;20050;-41
2021/08/01 11:02:38;;;;;;;0.10;0.10;;;25.60;47.30;;;;;;5037429;28;20132;-43
2021/08/01 11:05:34;;;;;;;0.45;0.28;;;25.60;47.30;;;;;;5040487;28;20167;-44
2021/08/01 11:08:05;;;;;;;0.10;0.10;;;25.70;47.30;;;;;;5045190;28;20053;-43
2021/08/01 11:10:33;;;;;;;0.25;0.10;;;25.60;47.30;;;;;;5035722;28;20041;-42
2021/08/01 11:13:01;;;;;;;0.60;0.40;;;25.60;47.20;;;;;;5042765;28;20119;-42
2021/08/01 11:15:46;;;;;;;0.47;0.10;;;25.60;47.10;;;;;;5049875;28;20400;-43
2021/08/01 11:18:15;;;;;;;0.23;0.10;;;25.70;47.10;;;;;;5034154;28;20037;-46
2021/08/01 11:20:49;;;;;;;0.22;0.22;;;25.70;47.10;;;;;;5045131;28;20049;-44
2021/08/01 11:23:17;;;;;;;0.10;0.10;;;25.70;47.10;;;;;;5043433;28;20073;-44
2021/08/01 11:26:06;;;;;;;1.30;0.10;;;25.80;47.20;;;;;;5037173;28;20083;-41
2021/08/01 11:28:34;;;;;;;2.35;0.10;;;25.80;47.10;;;;;;5048856;28;20135;-43
2021/08/01 11:31:24;;;;;;;0.30;0.10;;;25.80;47.60;;;;;;5048334;28;20025;-42
2021/08/01 11:33:54;;;;;;;0.55;0.55;;;25.80;47.00;;;;;;5045760;28;20053;-45
2021/08/01 11:36:23;;;;;;;1.05;0.10;;;25.80;47.00;;;;;;5034035;28;20049;-43
2021/08/01 11:39:07;;;;;;;0.13;0.10;;;25.80;46.90;;;;;;5046133;28;20576;-43
2021/08/01 11:41:43;;;;;;;0.28;0.10;;;25.90;46.90;;;;;;5041159;28;20057;-43
2021/08/01 11:44:17;;;;;;;1.33;0.10;;;25.90;46.80;;;;;;5036678;28;20427;-44
2021/08/01 11:47:04;;;;;;;0.10;0.10;;;25.90;46.80;;;;;;5036380;28;20106;-44
2021/08/01 11:49:35;;;;;;;1.58;0.10;;;25.90;46.70;;;;;;5035744;28;20596;-41
2021/08/01 11:52:04;;;;;;;0.10;0.10;;;26.00;46.80;;;;;;5047729;28;20068;-42
2021/08/01 11:54:32;;;;;;;0.75;0.17;;;26.00;46.80;;;;;;5049043;28;20525;-42
2021/08/01 11:57:01;;;;;;;1.23;0.03;;;26.00;46.70;;;;;;5046448;28;20043;-41
2021/08/01 11:59:29;;;;;;;0.28;0.10;;;26.00;46.60;;;;;;5047527;28;20060;-45
2021/08/01 12:01:57;;;;;;;0.10;0.00;;;26.10;47.30;;;;;;5045603;28;20578;-42
2021/08/01 12:04:25;;;;;;;0.20;0.10;;;26.10;46.60;;;;;;5034069;28;20368;-43
2021/08/01 12:06:55;;;;;;;0.10;0.10;;;26.10;46.50;;;;;;5047798;28;20068;-45
2021/08/01 12:09:24;;;;;;;0.38;0.00;;;26.10;46.50;;;;;;5033215;28;20069;-43
2021/08/01 12:11:53;;;;;;;1.65;0.13;;;26.20;46.50;;;;;;5045500;28;20041;-41
2021/08/01 12:14:23;;;;;;;0.08;0.08;;;26.20;46.50;;;;;;5041569;28;20041;-41
2021/08/01 12:16:55;;;;;;;0.63;0.55;;;26.20;46.40;;;;;;5046198;28;20072;-48
2021/08/01 12:19:23;;;;;;;0.57;0.10;;;26.20;46.30;;;;;;5033325;28;20045;-42
2021/08/01 12:21:54;;;;;;;0.35;0.00;;;26.20;46.30;;;;;;5047376;28;20157;-44
2021/08/01 12:24:38;;;;;;;0.38;0.10;;;26.30;46.40;;;;;;5033027;28;20051;-44
2021/08/01 12:27:08;;;;;;;1.45;0.55;;;26.30;46.90;;;;;;5047651;28;20048;-44
2021/08/01 12:29:37;;;;;;;0.10;0.10;;;26.30;46.30;;;;;;5038402;28;20124;-47
2021/08/01 12:32:21;;;;;;;0.10;0.10;;;26.30;46.20;;;;;;5038867;28;20131;-43
2021/08/01 12:34:49;;;;;;;0.32;0.20;;;26.40;46.20;;;;;;5046793;28;20483;-42
2021/08/01 12:37:16;;;;;;;0.55;0.13;;;26.40;46.30;;;;;;5043756;28;20148;-42
2021/08/01 12:39:49;;;;;;;1.42;0.20;;;26.40;46.20;;;;;;5047482;28;20091;-43
2021/08/01 12:42:17;;;;;;;0.85;0.30;;;26.40;46.20;;;;;;5047497;28;20160;-43
2021/08/01 12:44:56;;;;;;;0.43;0.10;;;26.50;46.20;;;;;;5046840;28;20044;-45
2021/08/01 12:47:24;;;;;;;0.65;0.20;;;26.50;46.30;;;;;;5041124;28;20045;-42
2021/08/01 12:49:51;;;;;;;1.15;0.13;;;26.50;46.30;;;;;;5035534;28;20156;-42
2021/08/01 12:52:23;;;;;;;0.10;0.10;;;26.50;46.30;;;;;;5032304;28;20163;-42
2021/08/01 12:54:53;;;;;;;0.52;0.10;;;26.60;46.30;;;;;;5047070;28;20114;-45
2021/08/01 12:57:21;;;;;;;0.30;0.10;;;26.60;46.10;;;;;;5034541;28;20430;-44
2021/08/01 13:00:07;;;;;;;0.30;0.17;;;26.60;46.00;;;;;;5044394;28;20536;-46
2021/08/01 13:02:35;;;;;;;0.20;0.10;;;26.70;46.00;;;;;;5046603;28;20528;-41